sensor_id;sensor_type;location;lat;lon;timestamp;P1;durP1;ratioP1;P2;durP2;ratioP2
70010;SDS011;59543;37.950;-122.338;2022-09-09T00:04:36;58.28;;;17.25;;
70010;SDS011;59543;37.950;-122.338;2022-09-09T00:09:34;75.13;;;18.83;;
70010;SDS011;59543;37.950;-122.338;2022-09-09T00:12:25;65.78;;;19.52;;
70010;SDS011;59543;37.950;-122.338;2022-09-09T00:15:00;58.92;;;18.90;;
70010;SDS011;59543;37.950;-122.338;2022-09-09T00:20:48;61.22;;;18.08;;
70010;SDS011;59543;37.950;-122.338;2022-09-09T00:23:08;67.90;;;18.55;;
70010;SDS011;59543;37.950;-122.338;2022-09-09T00:25:50;64.82;;;18.25;;
70010;SDS011;59543;37.950;-122.338;2022-09-09T00:28:28;73.97;;;19.10;;
70010;SDS011;59543;37.950;-122.338;2022-09-09T00:30:59;65.63;;;18.55;;
70010;SDS011;59543;37.950;-122.338;2022-09-09T00:33:37;72.07;;;19.15;;
70010;SDS011;59543;37.950;-122.338;2022-09-09T00:36:07;68.60;;;18.40;;
70010;SDS011;59543;37.950;-122.338;2022-09-09T00:38:51;60.20;;;19.02;;
70010;SDS011;59543;37.950;-122.338;2022-09-09T00:41:22;80.15;;;19.50;;
70010;SDS011;59543;37.950;-122.338;2022-09-09T00:49:36;71.32;;;18.70;;
70010;SDS011;59543;37.950;-122.338;2022-09-09T00:54:52;72.80;;;19.58;;
70010;SDS011;59543;37.950;-122.338;2022-09-09T00:57:32;52.63;;;17.90;;
70010;SDS011;59543;37.950;-122.338;2022-09-09T01:11:10;72.70;;;19.60;;
70010;SDS011;59543;37.950;-122.338;2022-09-09T01:13:46;99.20;;;20.30;;
70010;SDS011;59543;37.950;-122.338;2022-09-09T01:16:14;68.80;;;19.98;;
70010;SDS011;59543;37.950;-122.338;2022-09-09T01:18:46;72.72;;;19.70;;
70010;SDS011;59543;37.950;-122.338;2022-09-09T01:26:42;93.57;;;21.90;;
70010;SDS011;59543;37.950;-122.338;2022-09-09T01:29:11;80.00;;;21.38;;
70010;SDS011;59543;37.950;-122.338;2022-09-09T01:31:51;86.13;;;20.98;;
70010;SDS011;59543;37.950;-122.338;2022-09-09T01:34:20;78.75;;;21.00;;
70010;SDS011;59543;37.950;-122.338;2022-09-09T01:36:57;74.60;;;20.48;;
70010;SDS011;59543;37.950;-122.338;2022-09-09T01:39:32;71.72;;;20.80;;
70010;SDS011;59543;37.950;-122.338;2022-09-09T01:42:00;79.97;;;20.77;;
70010;SDS011;59543;37.950;-122.338;2022-09-09T01:44:28;94.20;;;22.25;;
70010;SDS011;59543;37.950;-122.338;2022-09-09T01:46:56;81.97;;;22.30;;
70010;SDS011;59543;37.950;-122.338;2022-09-09T01:49:22;82.07;;;22.30;;
70010;SDS011;59543;37.950;-122.338;2022-09-09T01:51:50;98.25;;;22.45;;
70010;SDS011;59543;37.950;-122.338;2022-09-09T01:54:19;74.53;;;20.13;;
70010;SDS011;59543;37.950;-122.338;2022-09-09T02:02:23;86.30;;;22.42;;
70010;SDS011;59543;37.950;-122.338;2022-09-09T02:05:34;84.65;;;22.27;;
70010;SDS011;59543;37.950;-122.338;2022-09-09T02:07:50;103.50;;;23.85;;
70010;SDS011;59543;37.950;-122.338;2022-09-09T02:10:31;95.05;;;23.00;;
70010;SDS011;59543;37.950;-122.338;2022-09-09T02:13:14;89.93;;;22.63;;
70010;SDS011;59543;37.950;-122.338;2022-09-09T02:15:47;104.78;;;23.60;;
70010;SDS011;59543;37.950;-122.338;2022-09-09T02:18:18;88.70;;;23.38;;
70010;SDS011;59543;37.950;-122.338;2022-09-09T02:20:56;103.55;;;23.67;;
70010;SDS011;59543;37.950;-122.338;2022-09-09T02:23:23;99.22;;;23.45;;
70010;SDS011;59543;37.950;-122.338;2022-09-09T02:25:50;97.55;;;23.75;;
70010;SDS011;59543;37.950;-122.338;2022-09-09T02:28:19;104.70;;;24.75;;
70010;SDS011;59543;37.950;-122.338;2022-09-09T02:30:51;100.40;;;22.85;;
70010;SDS011;59543;37.950;-122.338;2022-09-09T02:33:22;102.20;;;24.48;;
70010;SDS011;59543;37.950;-122.338;2022-09-09T02:35:52;106.25;;;24.85;;
70010;SDS011;59543;37.950;-122.338;2022-09-09T02:38:27;100.13;;;24.23;;
70010;SDS011;59543;37.950;-122.338;2022-09-09T02:40:58;100.70;;;24.20;;
70010;SDS011;59543;37.950;-122.338;2022-09-09T02:43:24;101.13;;;23.40;;
70010;SDS011;59543;37.950;-122.338;2022-09-09T02:45:53;110.25;;;25.23;;
70010;SDS011;59543;37.950;-122.338;2022-09-09T02:48:52;105.72;;;23.75;;
70010;SDS011;59543;37.950;-122.338;2022-09-09T02:54:28;106.55;;;23.77;;
70010;SDS011;59543;37.950;-122.338;2022-09-09T02:57:03;109.63;;;23.75;;
70010;SDS011;59543;37.950;-122.338;2022-09-09T02:59:34;95.67;;;23.43;;
70010;SDS011;59543;37.950;-122.338;2022-09-09T03:02:01;108.82;;;24.45;;
70010;SDS011;59543;37.950;-122.338;2022-09-09T03:04:28;127.60;;;25.85;;
70010;SDS011;59543;37.950;-122.338;2022-09-09T03:06:58;110.25;;;25.15;;
70010;SDS011;59543;37.950;-122.338;2022-09-09T03:09:24;105.32;;;24.92;;
70010;SDS011;59543;37.950;-122.338;2022-09-09T03:11:51;107.22;;;25.20;;
70010;SDS011;59543;37.950;-122.338;2022-09-09T03:14:21;111.75;;;25.40;;
70010;SDS011;59543;37.950;-122.338;2022-09-09T03:16:50;114.55;;;25.55;;
70010;SDS011;59543;37.950;-122.338;2022-09-09T03:19:17;116.85;;;25.15;;
70010;SDS011;59543;37.950;-122.338;2022-09-09T03:21:44;105.57;;;23.90;;
70010;SDS011;59543;37.950;-122.338;2022-09-09T03:24:12;102.80;;;24.80;;
70010;SDS011;59543;37.950;-122.338;2022-09-09T03:26:39;108.38;;;25.08;;
70010;SDS011;59543;37.950;-122.338;2022-09-09T03:29:12;107.78;;;23.90;;
70010;SDS011;59543;37.950;-122.338;2022-09-09T03:31:39;113.22;;;25.00;;
70010;SDS011;59543;37.950;-122.338;2022-09-09T03:34:05;111.45;;;25.80;;
70010;SDS011;59543;37.950;-122.338;2022-09-09T03:36:32;117.00;;;25.23;;
70010;SDS011;59543;37.950;-122.338;2022-09-09T03:38:58;126.95;;;26.08;;
70010;SDS011;59543;37.950;-122.338;2022-09-09T03:41:28;115.35;;;25.30;;
70010;SDS011;59543;37.950;-122.338;2022-09-09T03:43:59;117.15;;;26.13;;
70010;SDS011;59543;37.950;-122.338;2022-09-09T03:46:26;116.43;;;26.02;;
70010;SDS011;59543;37.950;-122.338;2022-09-09T03:48:59;126.90;;;26.48;;
70010;SDS011;59543;37.950;-122.338;2022-09-09T03:51:26;121.50;;;25.85;;
70010;SDS011;59543;37.950;-122.338;2022-09-09T03:53:53;115.20;;;26.65;;
70010;SDS011;59543;37.950;-122.338;2022-09-09T03:56:22;122.38;;;26.80;;
70010;SDS011;59543;37.950;-122.338;2022-09-09T03:58:48;119.28;;;27.70;;
70010;SDS011;59543;37.950;-122.338;2022-09-09T04:01:15;130.70;;;26.52;;
70010;SDS011;59543;37.950;-122.338;2022-09-09T04:03:43;118.10;;;25.15;;
70010;SDS011;59543;37.950;-122.338;2022-09-09T04:06:12;120.82;;;26.02;;
70010;SDS011;59543;37.950;-122.338;2022-09-09T04:08:40;126.30;;;26.35;;
70010;SDS011;59543;37.950;-122.338;2022-09-09T04:11:07;121.75;;;27.40;;
70010;SDS011;59543;37.950;-122.338;2022-09-09T04:13:34;127.22;;;27.15;;
70010;SDS011;59543;37.950;-122.338;2022-09-09T04:16:05;119.13;;;26.35;;
70010;SDS011;59543;37.950;-122.338;2022-09-09T04:18:38;108.57;;;25.58;;
70010;SDS011;59543;37.950;-122.338;2022-09-09T04:21:05;116.60;;;25.70;;
70010;SDS011;59543;37.950;-122.338;2022-09-09T04:23:32;128.93;;;26.48;;
70010;SDS011;59543;37.950;-122.338;2022-09-09T04:26:00;116.13;;;24.98;;
70010;SDS011;59543;37.950;-122.338;2022-09-09T04:28:29;115.10;;;25.52;;
70010;SDS011;59543;37.950;-122.338;2022-09-09T04:31:03;126.65;;;26.60;;
70010;SDS011;59543;37.950;-122.338;2022-09-09T04:33:34;110.35;;;25.52;;
70010;SDS011;59543;37.950;-122.338;2022-09-09T04:36:01;113.63;;;24.73;;
70010;SDS011;59543;37.950;-122.338;2022-09-09T04:38:27;115.30;;;25.40;;
70010;SDS011;59543;37.950;-122.338;2022-09-09T04:40:54;116.95;;;25.83;;
70010;SDS011;59543;37.950;-122.338;2022-09-09T04:43:21;124.85;;;27.02;;
70010;SDS011;59543;37.950;-122.338;2022-09-09T04:45:48;122.18;;;26.23;;
70010;SDS011;59543;37.950;-122.338;2022-09-09T04:48:16;106.03;;;25.65;;
70010;SDS011;59543;37.950;-122.338;2022-09-09T04:50:43;129.73;;;27.08;;
70010;SDS011;59543;37.950;-122.338;2022-09-09T04:53:09;113.63;;;25.77;;
70010;SDS011;59543;37.950;-122.338;2022-09-09T04:55:36;131.98;;;27.55;;
70010;SDS011;59543;37.950;-122.338;2022-09-09T04:58:06;128.13;;;25.83;;
70010;SDS011;59543;37.950;-122.338;2022-09-09T05:00:34;120.65;;;26.10;;
70010;SDS011;59543;37.950;-122.338;2022-09-09T05:03:04;132.10;;;26.85;;
70010;SDS011;59543;37.950;-122.338;2022-09-09T05:05:32;128.80;;;26.02;;
70010;SDS011;59543;37.950;-122.338;2022-09-09T05:08:02;141.40;;;28.58;;
70010;SDS011;59543;37.950;-122.338;2022-09-09T05:10:30;135.77;;;27.88;;
70010;SDS011;59543;37.950;-122.338;2022-09-09T05:12:57;133.07;;;26.63;;
70010;SDS011;59543;37.950;-122.338;2022-09-09T05:15:26;115.88;;;25.02;;
70010;SDS011;59543;37.950;-122.338;2022-09-09T05:17:52;121.80;;;26.65;;
70010;SDS011;59543;37.950;-122.338;2022-09-09T05:20:22;132.75;;;26.48;;
70010;SDS011;59543;37.950;-122.338;2022-09-09T05:22:52;112.85;;;25.58;;
70010;SDS011;59543;37.950;-122.338;2022-09-09T05:25:21;126.10;;;27.30;;
70010;SDS011;59543;37.950;-122.338;2022-09-09T05:27:51;118.53;;;26.38;;
70010;SDS011;59543;37.950;-122.338;2022-09-09T05:30:18;139.07;;;27.35;;
70010;SDS011;59543;37.950;-122.338;2022-09-09T05:32:45;114.60;;;25.83;;
70010;SDS011;59543;37.950;-122.338;2022-09-09T05:35:13;120.22;;;26.50;;
70010;SDS011;59543;37.950;-122.338;2022-09-09T05:37:39;121.88;;;26.42;;
70010;SDS011;59543;37.950;-122.338;2022-09-09T05:40:06;132.85;;;27.13;;
70010;SDS011;59543;37.950;-122.338;2022-09-09T05:42:32;133.68;;;26.85;;
70010;SDS011;59543;37.950;-122.338;2022-09-09T05:44:58;136.85;;;26.42;;
70010;SDS011;59543;37.950;-122.338;2022-09-09T05:47:25;128.38;;;25.83;;
70010;SDS011;59543;37.950;-122.338;2022-09-09T05:49:53;127.05;;;26.27;;
70010;SDS011;59543;37.950;-122.338;2022-09-09T05:52:20;117.15;;;26.02;;
70010;SDS011;59543;37.950;-122.338;2022-09-09T05:54:46;119.20;;;25.75;;
70010;SDS011;59543;37.950;-122.338;2022-09-09T05:57:13;115.43;;;25.38;;
70010;SDS011;59543;37.950;-122.338;2022-09-09T05:59:39;123.10;;;25.52;;
70010;SDS011;59543;37.950;-122.338;2022-09-09T06:02:05;135.85;;;28.13;;
70010;SDS011;59543;37.950;-122.338;2022-09-09T06:04:33;124.63;;;26.05;;
70010;SDS011;59543;37.950;-122.338;2022-09-09T06:07:00;132.15;;;26.38;;
70010;SDS011;59543;37.950;-122.338;2022-09-09T06:09:26;119.05;;;26.02;;
70010;SDS011;59543;37.950;-122.338;2022-09-09T06:11:53;124.80;;;26.17;;
70010;SDS011;59543;37.950;-122.338;2022-09-09T06:14:19;124.93;;;26.92;;
70010;SDS011;59543;37.950;-122.338;2022-09-09T06:16:47;125.63;;;26.92;;
70010;SDS011;59543;37.950;-122.338;2022-09-09T06:19:13;112.75;;;24.90;;
70010;SDS011;59543;37.950;-122.338;2022-09-09T06:21:39;115.18;;;24.65;;
70010;SDS011;59543;37.950;-122.338;2022-09-09T06:24:06;137.40;;;26.02;;
70010;SDS011;59543;37.950;-122.338;2022-09-09T06:26:34;117.75;;;24.98;;
70010;SDS011;59543;37.950;-122.338;2022-09-09T06:29:02;114.80;;;25.13;;
70010;SDS011;59543;37.950;-122.338;2022-09-09T06:31:30;123.38;;;25.98;;
70010;SDS011;59543;37.950;-122.338;2022-09-09T06:33:59;112.35;;;24.60;;
70010;SDS011;59543;37.950;-122.338;2022-09-09T06:36:30;119.57;;;24.83;;
70010;SDS011;59543;37.950;-122.338;2022-09-09T06:39:02;115.75;;;24.60;;
70010;SDS011;59543;37.950;-122.338;2022-09-09T06:41:30;116.85;;;25.08;;
70010;SDS011;59543;37.950;-122.338;2022-09-09T06:43:58;119.38;;;25.13;;
70010;SDS011;59543;37.950;-122.338;2022-09-09T06:46:25;129.20;;;25.25;;
70010;SDS011;59543;37.950;-122.338;2022-09-09T06:48:54;121.13;;;24.90;;
70010;SDS011;59543;37.950;-122.338;2022-09-09T06:51:23;107.18;;;23.98;;
70010;SDS011;59543;37.950;-122.338;2022-09-09T06:53:51;125.40;;;25.45;;
70010;SDS011;59543;37.950;-122.338;2022-09-09T06:58:52;128.55;;;25.15;;
70010;SDS011;59543;37.950;-122.338;2022-09-09T07:01:24;129.90;;;26.63;;
70010;SDS011;59543;37.950;-122.338;2022-09-09T07:03:53;117.93;;;24.50;;
70010;SDS011;59543;37.950;-122.338;2022-09-09T07:06:30;130.18;;;25.45;;
70010;SDS011;59543;37.950;-122.338;2022-09-09T07:09:09;118.03;;;24.92;;
70010;SDS011;59543;37.950;-122.338;2022-09-09T07:11:38;121.57;;;24.63;;
70010;SDS011;59543;37.950;-122.338;2022-09-09T07:14:07;118.18;;;24.55;;
70010;SDS011;59543;37.950;-122.338;2022-09-09T07:16:34;130.90;;;25.73;;
70010;SDS011;59543;37.950;-122.338;2022-09-09T07:19:03;123.93;;;24.88;;
70010;SDS011;59543;37.950;-122.338;2022-09-09T07:21:30;121.85;;;24.80;;
70010;SDS011;59543;37.950;-122.338;2022-09-09T07:23:58;131.13;;;26.52;;
70010;SDS011;59543;37.950;-122.338;2022-09-09T07:26:26;115.75;;;24.77;;
70010;SDS011;59543;37.950;-122.338;2022-09-09T07:28:54;123.28;;;25.10;;
70010;SDS011;59543;37.950;-122.338;2022-09-09T07:33:50;133.70;;;25.30;;
70010;SDS011;59543;37.950;-122.338;2022-09-09T07:36:20;138.80;;;26.88;;
70010;SDS011;59543;37.950;-122.338;2022-09-09T07:38:52;117.57;;;25.40;;
70010;SDS011;59543;37.950;-122.338;2022-09-09T07:41:22;127.50;;;25.95;;
70010;SDS011;59543;37.950;-122.338;2022-09-09T07:43:54;128.48;;;27.00;;
70010;SDS011;59543;37.950;-122.338;2022-09-09T07:46:21;124.63;;;25.38;;
70010;SDS011;59543;37.950;-122.338;2022-09-09T07:48:51;125.38;;;26.10;;
70010;SDS011;59543;37.950;-122.338;2022-09-09T07:51:21;136.77;;;25.35;;
70010;SDS011;59543;37.950;-122.338;2022-09-09T07:53:56;135.17;;;28.00;;
70010;SDS011;59543;37.950;-122.338;2022-09-09T07:56:30;150.18;;;26.30;;
70010;SDS011;59543;37.950;-122.338;2022-09-09T07:58:57;137.80;;;26.92;;
70010;SDS011;59543;37.950;-122.338;2022-09-09T08:01:25;126.35;;;25.77;;
70010;SDS011;59543;37.950;-122.338;2022-09-09T08:04:00;130.05;;;26.63;;
70010;SDS011;59543;37.950;-122.338;2022-09-09T08:06:30;136.65;;;26.23;;
70010;SDS011;59543;37.950;-122.338;2022-09-09T08:08:58;132.90;;;27.27;;
70010;SDS011;59543;37.950;-122.338;2022-09-09T08:11:25;139.70;;;26.65;;
70010;SDS011;59543;37.950;-122.338;2022-09-09T08:13:54;135.65;;;27.05;;
70010;SDS011;59543;37.950;-122.338;2022-09-09T08:16:21;137.25;;;27.00;;
70010;SDS011;59543;37.950;-122.338;2022-09-09T08:18:50;134.18;;;27.10;;
70010;SDS011;59543;37.950;-122.338;2022-09-09T08:21:18;144.40;;;26.75;;
70010;SDS011;59543;37.950;-122.338;2022-09-09T08:23:50;136.48;;;27.60;;
70010;SDS011;59543;37.950;-122.338;2022-09-09T08:26:24;138.50;;;27.33;;
70010;SDS011;59543;37.950;-122.338;2022-09-09T08:29:00;136.95;;;27.92;;
70010;SDS011;59543;37.950;-122.338;2022-09-09T08:31:34;143.90;;;26.95;;
70010;SDS011;59543;37.950;-122.338;2022-09-09T08:34:10;144.57;;;28.17;;
70010;SDS011;59543;37.950;-122.338;2022-09-09T08:36:38;147.40;;;28.08;;
70010;SDS011;59543;37.950;-122.338;2022-09-09T08:39:12;141.68;;;27.30;;
70010;SDS011;59543;37.950;-122.338;2022-09-09T08:49:48;141.80;;;28.40;;
70010;SDS011;59543;37.950;-122.338;2022-09-09T08:55:50;123.30;;;25.10;;
70010;SDS011;59543;37.950;-122.338;2022-09-09T08:58:28;145.82;;;27.60;;
70010;SDS011;59543;37.950;-122.338;2022-09-09T09:12:43;140.98;;;27.05;;
70010;SDS011;59543;37.950;-122.338;2022-09-09T09:15:25;138.40;;;27.05;;
70010;SDS011;59543;37.950;-122.338;2022-09-09T09:17:56;138.88;;;27.10;;
70010;SDS011;59543;37.950;-122.338;2022-09-09T09:20:42;143.98;;;27.45;;
70010;SDS011;59543;37.950;-122.338;2022-09-09T09:23:22;138.55;;;27.27;;
70010;SDS011;59543;37.950;-122.338;2022-09-09T09:25:50;143.80;;;27.23;;
70010;SDS011;59543;37.950;-122.338;2022-09-09T09:28:23;136.70;;;27.45;;
70010;SDS011;59543;37.950;-122.338;2022-09-09T09:30:53;122.35;;;27.65;;
70010;SDS011;59543;37.950;-122.338;2022-09-09T09:35:55;151.73;;;30.63;;
70010;SDS011;59543;37.950;-122.338;2022-09-09T09:38:22;135.40;;;27.50;;
70010;SDS011;59543;37.950;-122.338;2022-09-09T09:40:56;150.75;;;29.98;;
70010;SDS011;59543;37.950;-122.338;2022-09-09T09:43:25;134.00;;;26.23;;
70010;SDS011;59543;37.950;-122.338;2022-09-09T09:45:54;140.25;;;26.42;;
70010;SDS011;59543;37.950;-122.338;2022-09-09T09:48:20;137.82;;;28.75;;
70010;SDS011;59543;37.950;-122.338;2022-09-09T09:50:48;145.45;;;28.33;;
70010;SDS011;59543;37.950;-122.338;2022-09-09T09:58:19;133.40;;;27.35;;
70010;SDS011;59543;37.950;-122.338;2022-09-09T10:00:49;146.32;;;28.80;;
70010;SDS011;59543;37.950;-122.338;2022-09-09T10:03:24;129.77;;;25.90;;
70010;SDS011;59543;37.950;-122.338;2022-09-09T10:05:51;140.85;;;29.08;;
70010;SDS011;59543;37.950;-122.338;2022-09-09T10:08:18;138.90;;;28.70;;
70010;SDS011;59543;37.950;-122.338;2022-09-09T10:18:59;136.63;;;28.20;;
70010;SDS011;59543;37.950;-122.338;2022-09-09T10:21:37;141.52;;;28.38;;
70010;SDS011;59543;37.950;-122.338;2022-09-09T10:24:22;134.25;;;26.67;;
70010;SDS011;59543;37.950;-122.338;2022-09-09T10:27:05;152.55;;;29.70;;
70010;SDS011;59543;37.950;-122.338;2022-09-09T10:35:02;156.35;;;29.05;;
70010;SDS011;59543;37.950;-122.338;2022-09-09T10:37:41;150.10;;;29.35;;
70010;SDS011;59543;37.950;-122.338;2022-09-09T10:40:23;130.23;;;28.13;;
70010;SDS011;59543;37.950;-122.338;2022-09-09T10:57:43;141.77;;;26.52;;
70010;SDS011;59543;37.950;-122.338;2022-09-09T11:05:33;132.93;;;28.17;;
70010;SDS011;59543;37.950;-122.338;2022-09-09T11:08:11;152.98;;;29.23;;
70010;SDS011;59543;37.950;-122.338;2022-09-09T11:10:48;139.93;;;29.02;;
70010;SDS011;59543;37.950;-122.338;2022-09-09T11:19:38;143.50;;;28.63;;
70010;SDS011;59543;37.950;-122.338;2022-09-09T11:25:28;142.05;;;28.75;;
70010;SDS011;59543;37.950;-122.338;2022-09-09T11:33:29;138.88;;;27.67;;
70010;SDS011;59543;37.950;-122.338;2022-09-09T11:38:51;148.27;;;29.60;;
70010;SDS011;59543;37.950;-122.338;2022-09-09T11:41:20;124.30;;;26.65;;
70010;SDS011;59543;37.950;-122.338;2022-09-09T11:43:48;143.05;;;26.50;;
70010;SDS011;59543;37.950;-122.338;2022-09-09T11:46:18;133.13;;;27.35;;
70010;SDS011;59543;37.950;-122.338;2022-09-09T11:48:59;144.60;;;29.02;;
70010;SDS011;59543;37.950;-122.338;2022-09-09T11:51:29;128.93;;;28.27;;
70010;SDS011;59543;37.950;-122.338;2022-09-09T11:53:58;131.57;;;27.40;;
70010;SDS011;59543;37.950;-122.338;2022-09-09T11:56:27;129.35;;;28.02;;
70010;SDS011;59543;37.950;-122.338;2022-09-09T11:58:59;129.88;;;27.10;;
70010;SDS011;59543;37.950;-122.338;2022-09-09T12:01:34;125.55;;;26.73;;
70010;SDS011;59543;37.950;-122.338;2022-09-09T12:06:44;140.63;;;27.77;;
70010;SDS011;59543;37.950;-122.338;2022-09-09T12:12:30;136.30;;;26.45;;
70010;SDS011;59543;37.950;-122.338;2022-09-09T12:15:03;153.35;;;29.10;;
70010;SDS011;59543;37.950;-122.338;2022-09-09T12:17:56;135.07;;;27.60;;
70010;SDS011;59543;37.950;-122.338;2022-09-09T12:23:13;133.18;;;27.55;;
70010;SDS011;59543;37.950;-122.338;2022-09-09T12:26:15;149.90;;;29.50;;
70010;SDS011;59543;37.950;-122.338;2022-09-09T12:29:10;146.02;;;28.10;;
70010;SDS011;59543;37.950;-122.338;2022-09-09T12:34:13;129.95;;;27.38;;
70010;SDS011;59543;37.950;-122.338;2022-09-09T12:36:40;135.48;;;28.42;;
70010;SDS011;59543;37.950;-122.338;2022-09-09T12:39:10;133.40;;;26.83;;
70010;SDS011;59543;37.950;-122.338;2022-09-09T12:42:01;144.75;;;28.05;;
70010;SDS011;59543;37.950;-122.338;2022-09-09T12:44:29;133.40;;;27.35;;
70010;SDS011;59543;37.950;-122.338;2022-09-09T12:46:58;152.77;;;28.08;;
70010;SDS011;59543;37.950;-122.338;2022-09-09T12:49:29;118.03;;;25.42;;
70010;SDS011;59543;37.950;-122.338;2022-09-09T12:52:36;147.35;;;27.67;;
70010;SDS011;59543;37.950;-122.338;2022-09-09T12:55:00;147.43;;;28.98;;
70010;SDS011;59543;37.950;-122.338;2022-09-09T12:57:33;146.25;;;28.35;;
70010;SDS011;59543;37.950;-122.338;2022-09-09T13:00:11;141.10;;;28.02;;
70010;SDS011;59543;37.950;-122.338;2022-09-09T13:02:45;140.45;;;28.05;;
70010;SDS011;59543;37.950;-122.338;2022-09-09T13:05:17;146.38;;;28.55;;
70010;SDS011;59543;37.950;-122.338;2022-09-09T13:08:04;120.38;;;26.17;;
70010;SDS011;59543;37.950;-122.338;2022-09-09T13:10:35;130.55;;;26.85;;
70010;SDS011;59543;37.950;-122.338;2022-09-09T13:13:15;142.15;;;28.20;;
70010;SDS011;59543;37.950;-122.338;2022-09-09T13:15:55;144.32;;;27.75;;
70010;SDS011;59543;37.950;-122.338;2022-09-09T13:18:24;155.93;;;28.42;;
70010;SDS011;59543;37.950;-122.338;2022-09-09T13:20:54;131.88;;;27.55;;
70010;SDS011;59543;37.950;-122.338;2022-09-09T13:23:23;144.52;;;28.80;;
70010;SDS011;59543;37.950;-122.338;2022-09-09T13:25:56;138.68;;;27.08;;
70010;SDS011;59543;37.950;-122.338;2022-09-09T13:28:28;140.00;;;28.38;;
70010;SDS011;59543;37.950;-122.338;2022-09-09T13:31:05;131.82;;;28.30;;
70010;SDS011;59543;37.950;-122.338;2022-09-09T13:33:45;156.40;;;28.98;;
70010;SDS011;59543;37.950;-122.338;2022-09-09T13:36:11;127.38;;;27.55;;
70010;SDS011;59543;37.950;-122.338;2022-09-09T13:41:20;134.35;;;27.08;;
70010;SDS011;59543;37.950;-122.338;2022-09-09T13:43:50;160.05;;;29.35;;
70010;SDS011;59543;37.950;-122.338;2022-09-09T13:46:31;140.25;;;27.92;;
70010;SDS011;59543;37.950;-122.338;2022-09-09T13:49:18;154.85;;;30.20;;
70010;SDS011;59543;37.950;-122.338;2022-09-09T13:51:47;144.05;;;27.38;;
70010;SDS011;59543;37.950;-122.338;2022-09-09T13:54:20;137.93;;;27.88;;
70010;SDS011;59543;37.950;-122.338;2022-09-09T13:56:46;149.43;;;28.90;;
70010;SDS011;59543;37.950;-122.338;2022-09-09T13:59:16;155.55;;;29.02;;
70010;SDS011;59543;37.950;-122.338;2022-09-09T14:01:45;160.90;;;29.63;;
70010;SDS011;59543;37.950;-122.338;2022-09-09T14:04:11;146.90;;;28.13;;
70010;SDS011;59543;37.950;-122.338;2022-09-09T14:06:38;149.68;;;29.13;;
70010;SDS011;59543;37.950;-122.338;2022-09-09T14:09:05;139.38;;;27.70;;
70010;SDS011;59543;37.950;-122.338;2022-09-09T14:11:39;147.48;;;29.50;;
70010;SDS011;59543;37.950;-122.338;2022-09-09T14:14:05;141.73;;;28.10;;
70010;SDS011;59543;37.950;-122.338;2022-09-09T14:16:32;146.00;;;27.52;;
70010;SDS011;59543;37.950;-122.338;2022-09-09T14:18:58;158.00;;;29.52;;
70010;SDS011;59543;37.950;-122.338;2022-09-09T14:21:25;149.20;;;29.48;;
70010;SDS011;59543;37.950;-122.338;2022-09-09T14:23:53;159.35;;;30.58;;
70010;SDS011;59543;37.950;-122.338;2022-09-09T14:26:20;153.65;;;28.90;;
70010;SDS011;59543;37.950;-122.338;2022-09-09T14:28:48;143.32;;;29.20;;
70010;SDS011;59543;37.950;-122.338;2022-09-09T14:31:15;149.60;;;30.67;;
70010;SDS011;59543;37.950;-122.338;2022-09-09T14:33:44;153.70;;;29.38;;
70010;SDS011;59543;37.950;-122.338;2022-09-09T14:36:11;167.02;;;30.95;;
70010;SDS011;59543;37.950;-122.338;2022-09-09T14:38:37;155.07;;;29.42;;
70010;SDS011;59543;37.950;-122.338;2022-09-09T14:41:14;159.90;;;31.50;;
70010;SDS011;59543;37.950;-122.338;2022-09-09T14:43:42;167.55;;;31.30;;
70010;SDS011;59543;37.950;-122.338;2022-09-09T14:46:10;146.43;;;28.35;;
70010;SDS011;59543;37.950;-122.338;2022-09-09T14:48:38;160.38;;;30.50;;
70010;SDS011;59543;37.950;-122.338;2022-09-09T14:51:06;151.70;;;29.38;;
70010;SDS011;59543;37.950;-122.338;2022-09-09T14:53:35;176.30;;;31.98;;
70010;SDS011;59543;37.950;-122.338;2022-09-09T14:56:06;157.35;;;29.65;;
70010;SDS011;59543;37.950;-122.338;2022-09-09T14:58:34;156.88;;;30.73;;
70010;SDS011;59543;37.950;-122.338;2022-09-09T15:01:07;151.82;;;30.92;;
70010;SDS011;59543;37.950;-122.338;2022-09-09T15:03:41;156.68;;;30.52;;
70010;SDS011;59543;37.950;-122.338;2022-09-09T15:06:09;148.13;;;30.08;;
70010;SDS011;59543;37.950;-122.338;2022-09-09T15:08:38;152.38;;;30.00;;
70010;SDS011;59543;37.950;-122.338;2022-09-09T15:11:06;170.35;;;30.40;;
70010;SDS011;59543;37.950;-122.338;2022-09-09T15:13:33;151.02;;;29.75;;
70010;SDS011;59543;37.950;-122.338;2022-09-09T15:16:18;161.13;;;30.27;;
70010;SDS011;59543;37.950;-122.338;2022-09-09T15:18:45;153.13;;;29.13;;
70010;SDS011;59543;37.950;-122.338;2022-09-09T15:21:13;135.27;;;27.73;;
70010;SDS011;59543;37.950;-122.338;2022-09-09T15:23:48;157.73;;;29.60;;
70010;SDS011;59543;37.950;-122.338;2022-09-09T15:26:15;128.90;;;27.13;;
70010;SDS011;59543;37.950;-122.338;2022-09-09T15:28:43;139.82;;;28.30;;
70010;SDS011;59543;37.950;-122.338;2022-09-09T15:31:14;142.02;;;28.52;;
70010;SDS011;59543;37.950;-122.338;2022-09-09T15:33:53;136.80;;;27.60;;
70010;SDS011;59543;37.950;-122.338;2022-09-09T15:36:28;138.02;;;28.05;;
70010;SDS011;59543;37.950;-122.338;2022-09-09T15:38:59;139.85;;;28.13;;
70010;SDS011;59543;37.950;-122.338;2022-09-09T15:41:26;144.27;;;27.63;;
70010;SDS011;59543;37.950;-122.338;2022-09-09T15:43:54;122.88;;;26.50;;
70010;SDS011;59543;37.950;-122.338;2022-09-09T15:46:27;142.02;;;27.77;;
70010;SDS011;59543;37.950;-122.338;2022-09-09T15:48:56;140.30;;;28.65;;
70010;SDS011;59543;37.950;-122.338;2022-09-09T15:51:28;132.90;;;26.42;;
70010;SDS011;59543;37.950;-122.338;2022-09-09T15:53:55;141.00;;;27.40;;
70010;SDS011;59543;37.950;-122.338;2022-09-09T15:56:23;132.88;;;26.65;;
70010;SDS011;59543;37.950;-122.338;2022-09-09T15:58:54;112.75;;;24.98;;
70010;SDS011;59543;37.950;-122.338;2022-09-09T16:01:22;135.93;;;26.92;;
70010;SDS011;59543;37.950;-122.338;2022-09-09T16:03:48;134.38;;;27.08;;
70010;SDS011;59543;37.950;-122.338;2022-09-09T16:06:17;152.45;;;27.80;;
70010;SDS011;59543;37.950;-122.338;2022-09-09T16:08:51;111.82;;;24.90;;
70010;SDS011;59543;37.950;-122.338;2022-09-09T16:11:21;138.38;;;26.77;;
70010;SDS011;59543;37.950;-122.338;2022-09-09T16:13:50;104.22;;;23.45;;
70010;SDS011;59543;37.950;-122.338;2022-09-09T16:16:18;123.72;;;26.13;;
70010;SDS011;59543;37.950;-122.338;2022-09-09T16:18:48;131.65;;;26.55;;